sensor_id;sensor_type;location;lat;lon;timestamp;temperature;humidity
29551;DHT22;16488;52.396;10.696;2023-11-19T09:19:35;12.60;99.90
29551;DHT22;16488;52.396;10.696;2023-11-19T09:22:01;12.70;99.90
29551;DHT22;16488;52.396;10.696;2023-11-19T09:24:26;12.70;99.90
29551;DHT22;16488;52.396;10.696;2023-11-19T09:26:52;12.60;99.90
29551;DHT22;16488;52.396;10.696;2023-11-19T09:29:20;12.70;99.90
29551;DHT22;16488;52.396;10.696;2023-11-19T09:31:46;12.60;99.90
29551;DHT22;16488;52.396;10.696;2023-11-19T09:34:12;12.60;99.90
29551;DHT22;16488;52.396;10.696;2023-11-19T09:36:37;12.80;99.90
29551;DHT22;16488;52.396;10.696;2023-11-19T09:39:03;12.80;99.90
29551;DHT22;16488;52.396;10.696;2023-11-19T09:41:33;12.60;99.90
29551;DHT22;16488;52.396;10.696;2023-11-19T09:44:00;12.40;99.90
29551;DHT22;16488;52.396;10.696;2023-11-19T09:46:25;12.30;99.90
29551;DHT22;16488;52.396;10.696;2023-11-19T09:48:54;12.40;99.90
29551;DHT22;16488;52.396;10.696;2023-11-19T09:51:21;12.70;99.90
29551;DHT22;16488;52.396;10.696;2023-11-19T09:53:47;13.00;99.90
29551;DHT22;16488;52.396;10.696;2023-11-19T09:56:13;13.20;99.90
29551;DHT22;16488;52.396;10.696;2023-11-19T09:58:39;13.10;99.90
29551;DHT22;16488;52.396;10.696;2023-11-19T10:01:05;12.90;99.90
29551;DHT22;16488;52.396;10.696;2023-11-19T10:03:33;12.90;99.90
29551;DHT22;16488;52.396;10.696;2023-11-19T10:06:00;13.10;99.90
29551;DHT22;16488;52.396;10.696;2023-11-19T10:08:26;13.20;99.90
29551;DHT22;16488;52.396;10.696;2023-11-19T10:10:52;13.40;99.90
29551;DHT22;16488;52.396;10.696;2023-11-19T10:13:17;13.60;99.90
29551;DHT22;16488;52.396;10.696;2023-11-19T10:15:43;13.80;99.90
29551;DHT22;16488;52.396;10.696;2023-11-19T10:18:08;13.90;99.90
29551;DHT22;16488;52.396;10.696;2023-11-19T10:20:37;14.20;99.90
29551;DHT22;16488;52.396;10.696;2023-11-19T10:23:03;14.30;99.90
29551;DHT22;16488;52.396;10.696;2023-11-19T10:25:28;13.90;99.90
29551;DHT22;16488;52.396;10.696;2023-11-19T10:27:55;13.90;99.90
29551;DHT22;16488;52.396;10.696;2023-11-19T10:30:21;14.10;99.90
29551;DHT22;16488;52.396;10.696;2023-11-19T10:33:02;14.10;99.90
29551;DHT22;16488;52.396;10.696;2023-11-19T10:35:28;14.10;99.90
29551;DHT22;16488;52.396;10.696;2023-11-19T10:37:53;13.80;99.90
29551;DHT22;16488;52.396;10.696;2023-11-19T10:40:19;13.90;99.90
29551;DHT22;16488;52.396;10.696;2023-11-19T10:42:45;13.80;99.90
29551;DHT22;16488;52.396;10.696;2023-11-19T10:45:32;13.90;99.90
29551;DHT22;16488;52.396;10.696;2023-11-19T10:47:57;13.70;99.90
29551;DHT22;16488;52.396;10.696;2023-11-19T10:50:23;13.80;99.90
29551;DHT22;16488;52.396;10.696;2023-11-19T10:52:51;13.70;99.90
29551;DHT22;16488;52.396;10.696;2023-11-19T10:55:18;13.60;99.90
29551;DHT22;16488;52.396;10.696;2023-11-19T10:57:46;13.30;99.90
29551;DHT22;16488;52.396;10.696;2023-11-19T11:00:12;13.20;99.90
29551;DHT22;16488;52.396;10.696;2023-11-19T11:02:42;13.00;99.90
29551;DHT22;16488;52.396;10.696;2023-11-19T11:05:10;12.90;99.90
29551;DHT22;16488;52.396;10.696;2023-11-19T11:07:36;12.90;99.90
29551;DHT22;16488;52.396;10.696;2023-11-19T11:10:05;12.90;99.90
29551;DHT22;16488;52.396;10.696;2023-11-19T11:12:34;12.90;99.90
29551;DHT22;16488;52.396;10.696;2023-11-19T11:15:01;13.20;99.90
29551;DHT22;16488;52.396;10.696;2023-11-19T11:17:28;13.20;99.90
29551;DHT22;16488;52.396;10.696;2023-11-19T11:19:55;13.20;99.90
29551;DHT22;16488;52.396;10.696;2023-11-19T11:22:21;13.00;99.90
29551;DHT22;16488;52.396;10.696;2023-11-19T11:25:00;13.00;99.90
29551;DHT22;16488;52.396;10.696;2023-11-19T11:30:10;12.90;99.90
29551;DHT22;16488;52.396;10.696;2023-11-19T11:37:46;12.80;99.90
29551;DHT22;16488;52.396;10.696;2023-11-19T11:40:14;13.00;99.90
29551;DHT22;16488;52.396;10.696;2023-11-19T11:42:41;13.20;99.90
29551;DHT22;16488;52.396;10.696;2023-11-19T11:45:07;13.40;99.90
29551;DHT22;16488;52.396;10.696;2023-11-19T11:50:18;13.70;99.90
29551;DHT22;16488;52.396;10.696;2023-11-19T11:57:49;13.50;99.90
29551;DHT22;16488;52.396;10.696;2023-11-19T12:00:28;13.50;99.90
29551;DHT22;16488;52.396;10.696;2023-11-19T12:03:01;13.30;99.90
29551;DHT22;16488;52.396;10.696;2023-11-19T12:05:27;13.30;99.90
29551;DHT22;16488;52.396;10.696;2023-11-19T12:07:56;13.30;99.90
29551;DHT22;16488;52.396;10.696;2023-11-19T12:10:26;13.20;99.90
29551;DHT22;16488;52.396;10.696;2023-11-19T12:12:58;13.10;99.90
29551;DHT22;16488;52.396;10.696;2023-11-19T12:15:23;13.30;99.90
29551;DHT22;16488;52.396;10.696;2023-11-19T12:17:51;13.50;99.90
29551;DHT22;16488;52.396;10.696;2023-11-19T12:20:17;13.40;99.90
29551;DHT22;16488;52.396;10.696;2023-11-19T12:22:44;13.40;99.90
29551;DHT22;16488;52.396;10.696;2023-11-19T12:25:13;13.30;99.90
29551;DHT22;16488;52.396;10.696;2023-11-19T12:27:40;13.30;99.90
29551;DHT22;16488;52.396;10.696;2023-11-19T12:30:06;13.30;99.90
29551;DHT22;16488;52.396;10.696;2023-11-19T12:32:41;13.40;99.90
29551;DHT22;16488;52.396;10.696;2023-11-19T12:35:07;13.40;99.90
29551;DHT22;16488;52.396;10.696;2023-11-19T12:37:43;13.20;99.90
29551;DHT22;16488;52.396;10.696;2023-11-19T12:40:15;13.00;99.90
29551;DHT22;16488;52.396;10.696;2023-11-19T12:42:41;13.00;99.90
29551;DHT22;16488;52.396;10.696;2023-11-19T12:45:07;12.90;99.90
29551;DHT22;16488;52.396;10.696;2023-11-19T12:47:36;12.90;99.90
29551;DHT22;16488;52.396;10.696;2023-11-19T12:50:02;12.80;99.90
29551;DHT22;16488;52.396;10.696;2023-11-19T12:52:29;12.80;99.90
29551;DHT22;16488;52.396;10.696;2023-11-19T12:54:55;12.80;99.90
29551;DHT22;16488;52.396;10.696;2023-11-19T12:57:20;12.80;99.90
29551;DHT22;16488;52.396;10.696;2023-11-19T12:59:55;12.80;99.90
29551;DHT22;16488;52.396;10.696;2023-11-19T13:02:22;12.80;99.90
29551;DHT22;16488;52.396;10.696;2023-11-19T13:04:48;12.80;99.90
29551;DHT22;16488;52.396;10.696;2023-11-19T13:07:15;13.10;99.90
29551;DHT22;16488;52.396;10.696;2023-11-19T13:09:45;13.30;99.90
29551;DHT22;16488;52.396;10.696;2023-11-19T13:12:14;13.50;99.90
29551;DHT22;16488;52.396;10.696;2023-11-19T13:14:40;13.50;99.90
29551;DHT22;16488;52.396;10.696;2023-11-19T13:17:07;13.50;99.90
29551;DHT22;16488;52.396;10.696;2023-11-19T13:19:34;13.30;99.90
29551;DHT22;16488;52.396;10.696;2023-11-19T13:22:00;13.10;99.90
29551;DHT22;16488;52.396;10.696;2023-11-19T13:24:25;13.10;99.90
29551;DHT22;16488;52.396;10.696;2023-11-19T13:26:51;13.10;99.90
29551;DHT22;16488;52.396;10.696;2023-11-19T13:29:16;13.00;99.90
29551;DHT22;16488;52.396;10.696;2023-11-19T13:31:42;12.90;99.90
29551;DHT22;16488;52.396;10.696;2023-11-19T13:34:08;12.90;99.90
29551;DHT22;16488;52.396;10.696;2023-11-19T13:36:33;12.80;99.90
29551;DHT22;16488;52.396;10.696;2023-11-19T13:38:59;12.70;99.90
29551;DHT22;16488;52.396;10.696;2023-11-19T13:41:25;12.70;99.90
29551;DHT22;16488;52.396;10.696;2023-11-19T13:43:51;12.60;99.90
29551;DHT22;16488;52.396;10.696;2023-11-19T13:46:17;12.60;99.90
29551;DHT22;16488;52.396;10.696;2023-11-19T13:48:42;12.50;99.90
29551;DHT22;16488;52.396;10.696;2023-11-19T13:51:08;12.50;99.90
29551;DHT22;16488;52.396;10.696;2023-11-19T13:53:35;12.50;99.90
29551;DHT22;16488;52.396;10.696;2023-11-19T13:56:00;12.50;99.90
29551;DHT22;16488;52.396;10.696;2023-11-19T13:58:26;12.50;99.90
29551;DHT22;16488;52.396;10.696;2023-11-19T14:00:51;12.50;99.90
29551;DHT22;16488;52.396;10.696;2023-11-19T14:03:17;12.50;99.90
29551;DHT22;16488;52.396;10.696;2023-11-19T14:05:43;12.50;99.90
29551;DHT22;16488;52.396;10.696;2023-11-19T14:08:09;12.50;99.90
29551;DHT22;16488;52.396;10.696;2023-11-19T14:10:38;12.60;99.90
29551;DHT22;16488;52.396;10.696;2023-11-19T14:13:06;12.60;99.90
29551;DHT22;16488;52.396;10.696;2023-11-19T14:15:31;12.50;99.90
29551;DHT22;16488;52.396;10.696;2023-11-19T14:17:57;12.50;99.90
29551;DHT22;16488;52.396;10.696;2023-11-19T14:20:23;12.60;99.90
29551;DHT22;16488;52.396;10.696;2023-11-19T14:22:48;12.60;99.90
29551;DHT22;16488;52.396;10.696;2023-11-19T14:25:15;12.60;99.90
29551;DHT22;16488;52.396;10.696;2023-11-19T14:27:41;12.50;99.90
29551;DHT22;16488;52.396;10.696;2023-11-19T14:30:10;12.50;99.90
29551;DHT22;16488;52.396;10.696;2023-11-19T14:32:37;12.50;99.90
29551;DHT22;16488;52.396;10.696;2023-11-19T14:35:03;12.50;99.90
29551;DHT22;16488;52.396;10.696;2023-11-19T14:37:29;12.50;99.90
29551;DHT22;16488;52.396;10.696;2023-11-19T14:39:56;12.40;99.90
29551;DHT22;16488;52.396;10.696;2023-11-19T14:42:23;12.40;99.90
29551;DHT22;16488;52.396;10.696;2023-11-19T14:44:49;12.40;99.90
29551;DHT22;16488;52.396;10.696;2023-11-19T14:47:15;12.30;99.90
29551;DHT22;16488;52.396;10.696;2023-11-19T14:49:40;12.30;99.90
29551;DHT22;16488;52.396;10.696;2023-11-19T14:52:06;12.30;99.90
29551;DHT22;16488;52.396;10.696;2023-11-19T14:54:32;12.20;99.90
29551;DHT22;16488;52.396;10.696;2023-11-19T14:56:57;12.20;99.90
29551;DHT22;16488;52.396;10.696;2023-11-19T14:59:25;12.20;99.90
29551;DHT22;16488;52.396;10.696;2023-11-19T15:01:50;12.10;99.90
29551;DHT22;16488;52.396;10.696;2023-11-19T15:04:16;12.10;99.90
29551;DHT22;16488;52.396;10.696;2023-11-19T15:06:42;12.10;99.90
29551;DHT22;16488;52.396;10.696;2023-11-19T15:09:07;12.10;99.90
29551;DHT22;16488;52.396;10.696;2023-11-19T15:11:33;12.10;99.90
29551;DHT22;16488;52.396;10.696;2023-11-19T15:13:58;12.10;99.90
29551;DHT22;16488;52.396;10.696;2023-11-19T15:16:25;12.00;99.90
29551;DHT22;16488;52.396;10.696;2023-11-19T15:18:59;12.00;99.90
29551;DHT22;16488;52.396;10.696;2023-11-19T15:21:27;12.00;99.90
29551;DHT22;16488;52.396;10.696;2023-11-19T15:23:54;11.90;99.90
29551;DHT22;16488;52.396;10.696;2023-11-19T15:26:20;11.90;99.90
29551;DHT22;16488;52.396;10.696;2023-11-19T15:28:46;11.80;99.90
29551;DHT22;16488;52.396;10.696;2023-11-19T15:31:11;11.80;99.90
29551;DHT22;16488;52.396;10.696;2023-11-19T15:33:38;11.80;99.90
29551;DHT22;16488;52.396;10.696;2023-11-19T15:36:05;11.80;99.90
29551;DHT22;16488;52.396;10.696;2023-11-19T15:38:33;11.80;99.90
29551;DHT22;16488;52.396;10.696;2023-11-19T15:40:59;11.80;99.90
29551;DHT22;16488;52.396;10.696;2023-11-19T15:43:24;11.80;99.90
29551;DHT22;16488;52.396;10.696;2023-11-19T15:45:50;11.80;99.90
29551;DHT22;16488;52.396;10.696;2023-11-19T15:48:15;11.70;99.90
29551;DHT22;16488;52.396;10.696;2023-11-19T15:50:41;11.60;99.90
29551;DHT22;16488;52.396;10.696;2023-11-19T15:53:09;11.50;99.90
29551;DHT22;16488;52.396;10.696;2023-11-19T15:55:34;11.30;99.90
29551;DHT22;16488;52.396;10.696;2023-11-19T15:58:00;11.20;99.90
29551;DHT22;16488;52.396;10.696;2023-11-19T16:00:26;11.20;99.90
29551;DHT22;16488;52.396;10.696;2023-11-19T16:02:51;11.10;99.90
29551;DHT22;16488;52.396;10.696;2023-11-19T16:05:18;11.00;99.90
29551;DHT22;16488;52.396;10.696;2023-11-19T16:07:44;10.90;99.90
29551;DHT22;16488;52.396;10.696;2023-11-19T16:10:10;10.90;99.90
29551;DHT22;16488;52.396;10.696;2023-11-19T16:12:38;10.80;99.90
29551;DHT22;16488;52.396;10.696;2023-11-19T16:15:04;10.70;99.90
29551;DHT22;16488;52.396;10.696;2023-11-19T16:17:30;10.70;99.90
29551;DHT22;16488;52.396;10.696;2023-11-19T16:19:56;10.60;99.90
29551;DHT22;16488;52.396;10.696;2023-11-19T16:22:21;10.60;99.90
29551;DHT22;16488;52.396;10.696;2023-11-19T16:24:47;10.60;99.90
29551;DHT22;16488;52.396;10.696;2023-11-19T16:27:18;10.60;99.90
29551;DHT22;16488;52.396;10.696;2023-11-19T16:29:44;10.60;99.90
29551;DHT22;16488;52.396;10.696;2023-11-19T16:32:11;10.60;99.90
29551;DHT22;16488;52.396;10.696;2023-11-19T16:34:37;10.50;99.90
29551;DHT22;16488;52.396;10.696;2023-11-19T16:37:08;10.50;99.90
29551;DHT22;16488;52.396;10.696;2023-11-19T16:39:35;10.60;99.90
29551;DHT22;16488;52.396;10.696;2023-11-19T16:42:00;10.50;99.90
29551;DHT22;16488;52.396;10.696;2023-11-19T16:44:26;10.60;99.90
29551;DHT22;16488;52.396;10.696;2023-11-19T16:46:51;10.60;99.90
29551;DHT22;16488;52.396;10.696;2023-11-19T16:49:17;10.60;99.90
29551;DHT22;16488;52.396;10.696;2023-11-19T16:51:46;10.60;99.90
29551;DHT22;16488;52.396;10.696;2023-11-19T16:54:12;10.60;99.90
29551;DHT22;16488;52.396;10.696;2023-11-19T16:56:37;10.60;99.90
29551;DHT22;16488;52.396;10.696;2023-11-19T16:59:06;10.60;99.90
29551;DHT22;16488;52.396;10.696;2023-11-19T17:01:31;10.60;99.90
29551;DHT22;16488;52.396;10.696;2023-11-19T17:03:57;10.60;99.90
29551;DHT22;16488;52.396;10.696;2023-11-19T17:06:26;10.60;99.90
29551;DHT22;16488;52.396;10.696;2023-11-19T17:08:51;10.50;99.90
29551;DHT22;16488;52.396;10.696;2023-11-19T17:11:17;10.60;99.90
29551;DHT22;16488;52.396;10.696;2023-11-19T17:13:42;10.50;99.90
29551;DHT22;16488;52.396;10.696;2023-11-19T17:16:08;10.50;99.90
29551;DHT22;16488;52.396;10.696;2023-11-19T17:18:34;10.40;99.90
29551;DHT22;16488;52.396;10.696;2023-11-19T17:20:59;10.50;99.90
29551;DHT22;16488;52.396;10.696;2023-11-19T17:23:26;10.40;99.90
29551;DHT22;16488;52.396;10.696;2023-11-19T17:25:52;10.40;99.90
29551;DHT22;16488;52.396;10.696;2023-11-19T17:28:17;10.40;99.90
29551;DHT22;16488;52.396;10.696;2023-11-19T17:30:43;10.40;99.90
29551;DHT22;16488;52.396;10.696;2023-11-19T17:33:09;10.40;99.90
29551;DHT22;16488;52.396;10.696;2023-11-19T17:35:35;10.40;99.90
29551;DHT22;16488;52.396;10.696;2023-11-19T17:38:01;10.40;99.90
29551;DHT22;16488;52.396;10.696;2023-11-19T17:40:27;10.50;99.90
29551;DHT22;16488;52.396;10.696;2023-11-19T17:42:53;10.50;99.90
29551;DHT22;16488;52.396;10.696;2023-11-19T17:45:18;10.50;99.90
29551;DHT22;16488;52.396;10.696;2023-11-19T17:47:44;10.50;99.90
29551;DHT22;16488;52.396;10.696;2023-11-19T17:50:10;10.50;99.90
29551;DHT22;16488;52.396;10.696;2023-11-19T17:52:38;10.60;99.90
29551;DHT22;16488;52.396;10.696;2023-11-19T17:55:04;10.50;99.90
29551;DHT22;16488;52.396;10.696;2023-11-19T17:57:30;10.50;99.90
29551;DHT22;16488;52.396;10.696;2023-11-19T17:59:56;10.50;99.90
29551;DHT22;16488;52.396;10.696;2023-11-19T18:02:21;10.50;99.90
29551;DHT22;16488;52.396;10.696;2023-11-19T18:04:47;10.50;99.90
29551;DHT22;16488;52.396;10.696;2023-11-19T18:07:16;10.50;99.90
29551;DHT22;16488;52.396;10.696;2023-11-19T18:09:45;10.50;99.90
29551;DHT22;16488;52.396;10.696;2023-11-19T18:12:11;10.60;99.90
29551;DHT22;16488;52.396;10.696;2023-11-19T18:14:37;10.50;99.90
29551;DHT22;16488;52.396;10.696;2023-11-19T18:17:03;10.50;99.90
29551;DHT22;16488;52.396;10.696;2023-11-19T18:19:28;10.50;99.90
29551;DHT22;16488;52.396;10.696;2023-11-19T18:21:54;10.50;99.90
29551;DHT22;16488;52.396;10.696;2023-11-19T18:24:20;10.50;99.90
29551;DHT22;16488;52.396;10.696;2023-11-19T18:26:46;10.50;99.90
29551;DHT22;16488;52.396;10.696;2023-11-19T18:29:12;10.40;99.90
29551;DHT22;16488;52.396;10.696;2023-11-19T18:31:42;10.40;99.90
29551;DHT22;16488;52.396;10.696;2023-11-19T18:34:07;10.40;99.90
29551;DHT22;16488;52.396;10.696;2023-11-19T18:36:34;10.40;99.90
29551;DHT22;16488;52.396;10.696;2023-11-19T18:39:00;10.30;99.90
29551;DHT22;16488;52.396;10.696;2023-11-19T18:41:25;10.40;99.90
29551;DHT22;16488;52.396;10.696;2023-11-19T18:43:51;10.40;99.90
29551;DHT22;16488;52.396;10.696;2023-11-19T18:46:17;10.40;99.90
29551;DHT22;16488;52.396;10.696;2023-11-19T18:48:42;10.40;99.90
29551;DHT22;16488;52.396;10.696;2023-11-19T18:51:08;10.40;99.90
29551;DHT22;16488;52.396;10.696;2023-11-19T18:53:39;10.40;99.90
29551;DHT22;16488;52.396;10.696;2023-11-19T18:56:05;10.40;99.90
29551;DHT22;16488;52.396;10.696;2023-11-19T18:58:31;10.40;99.90
29551;DHT22;16488;52.396;10.696;2023-11-19T19:00:57;10.40;99.90
29551;DHT22;16488;52.396;10.696;2023-11-19T19:03:22;10.40;99.90
29551;DHT22;16488;52.396;10.696;2023-11-19T19:05:49;10.40;99.90
29551;DHT22;16488;52.396;10.696;2023-11-19T19:08:14;10.40;99.90
29551;DHT22;16488;52.396;10.696;2023-11-19T19:10:40;10.40;99.90
29551;DHT22;16488;52.396;10.696;2023-11-19T19:13:05;10.40;99.90
29551;DHT22;16488;52.396;10.696;2023-11-19T19:15:33;10.50;99.90
29551;DHT22;16488;52.396;10.696;2023-11-19T19:17:59;10.50;99.90
29551;DHT22;16488;52.396;10.696;2023-11-19T19:20:24;10.50;99.90
29551;DHT22;16488;52.396;10.696;2023-11-19T19:22:50;10.50;99.90
29551;DHT22;16488;52.396;10.696;2023-11-19T19:25:15;10.50;99.90
29551;DHT22;16488;52.396;10.696;2023-11-19T19:27:41;10.60;99.90
29551;DHT22;16488;52.396;10.696;2023-11-19T19:30:08;10.60;99.90
29551;DHT22;16488;52.396;10.696;2023-11-19T19:32:35;10.50;99.90
29551;DHT22;16488;52.396;10.696;2023-11-19T19:35:01;10.50;99.90
29551;DHT22;16488;52.396;10.696;2023-11-19T19:37:26;10.50;99.90
29551;DHT22;16488;52.396;10.696;2023-11-19T19:39:52;10.50;99.90
29551;DHT22;16488;52.396;10.696;2023-11-19T19:42:18;10.50;99.90
29551;DHT22;16488;52.396;10.696;2023-11-19T19:44:44;10.40;99.90
29551;DHT22;16488;52.396;10.696;2023-11-19T19:47:10;10.50;99.90
29551;DHT22;16488;52.396;10.696;2023-11-19T19:49:36;10.40;99.90
29551;DHT22;16488;52.396;10.696;2023-11-19T19:52:01;10.50;99.90
29551;DHT22;16488;52.396;10.696;2023-11-19T19:54:28;10.50;99.90
29551;DHT22;16488;52.396;10.696;2023-11-19T19:56:55;10.50;99.90
29551;DHT22;16488;52.396;10.696;2023-11-19T19:59:21;10.50;99.90
29551;DHT22;16488;52.396;10.696;2023-11-19T20:01:47;10.50;99.90
29551;DHT22;16488;52.396;10.696;2023-11-19T20:04:16;10.50;99.90
29551;DHT22;16488;52.396;10.696;2023-11-19T20:06:42;10.50;99.90
29551;DHT22;16488;52.396;10.696;2023-11-19T20:09:07;10.50;99.90
29551;DHT22;16488;52.396;10.696;2023-11-19T20:11:33;10.50;99.90
29551;DHT22;16488;52.396;10.696;2023-11-19T20:13:59;10.50;99.90
29551;DHT22;16488;52.396;10.696;2023-11-19T20:16:25;10.50;99.90
29551;DHT22;16488;52.396;10.696;2023-11-19T20:18:50;10.50;99.90
29551;DHT22;16488;52.396;10.696;2023-11-19T20:21:16;10.50;99.90
29551;DHT22;16488;52.396;10.696;2023-11-19T20:23:41;10.40;99.90
29551;DHT22;16488;52.396;10.696;2023-11-19T20:26:07;10.40;99.90
29551;DHT22;16488;52.396;10.696;2023-11-19T20:28:32;10.50;99.90
29551;DHT22;16488;52.396;10.696;2023-11-19T20:30:58;10.40;99.90
29551;DHT22;16488;52.396;10.696;2023-11-19T20:33:24;10.50;99.90
29551;DHT22;16488;52.396;10.696;2023-11-19T20:35:49;10.50;99.90
29551;DHT22;16488;52.396;10.696;2023-11-19T20:38:15;10.40;99.90
29551;DHT22;16488;52.396;10.696;2023-11-19T20:40:41;10.50;99.90
29551;DHT22;16488;52.396;10.696;2023-11-19T20:43:07;10.40;99.90
29551;DHT22;16488;52.396;10.696;2023-11-19T20:45:33;10.40;99.90
29551;DHT22;16488;52.396;10.696;2023-11-19T20:48:00;10.40;99.90
29551;DHT22;16488;52.396;10.696;2023-11-19T20:50:26;10.40;99.90
29551;DHT22;16488;52.396;10.696;2023-11-19T20:52:53;10.40;99.90
29551;DHT22;16488;52.396;10.696;2023-11-19T20:55:19;10.30;99.90
29551;DHT22;16488;52.396;10.696;2023-11-19T20:57:44;10.30;99.90
29551;DHT22;16488;52.396;10.696;2023-11-19T21:00:10;10.30;99.90
29551;DHT22;16488;52.396;10.696;2023-11-19T21:02:40;10.30;99.90
29551;DHT22;16488;52.396;10.696;2023-11-19T21:05:06;10.20;99.90
29551;DHT22;16488;52.396;10.696;2023-11-19T21:07:32;10.30;99.90
29551;DHT22;16488;52.396;10.696;2023-11-19T21:09:57;10.30;99.90
29551;DHT22;16488;52.396;10.696;2023-11-19T21:12:23;10.30;99.90
29551;DHT22;16488;52.396;10.696;2023-11-19T21:14:48;10.30;99.90
29551;DHT22;16488;52.396;10.696;2023-11-19T21:17:14;10.30;99.90
29551;DHT22;16488;52.396;10.696;2023-11-19T21:19:40;10.30;99.90
29551;DHT22;16488;52.396;10.696;2023-11-19T21:22:07;10.30;99.90
29551;DHT22;16488;52.396;10.696;2023-11-19T21:24:34;10.40;99.90
29551;DHT22;16488;52.396;10.696;2023-11-19T21:27:00;10.30;99.90
29551;DHT22;16488;52.396;10.696;2023-11-19T21:29:25;10.30;99.90
29551;DHT22;16488;52.396;10.696;2023-11-19T21:31:51;10.30;99.90
29551;DHT22;16488;52.396;10.696;2023-11-19T21:34:17;10.40;99.90
29551;DHT22;16488;52.396;10.696;2023-11-19T21:36:42;10.40;99.90
29551;DHT22;16488;52.396;10.696;2023-11-19T21:39:08;10.40;99.90
29551;DHT22;16488;52.396;10.696;2023-11-19T21:41:34;10.40;99.90
29551;DHT22;16488;52.396;10.696;2023-11-19T21:44:00;10.40;99.90
29551;DHT22;16488;52.396;10.696;2023-11-19T21:46:26;10.40;99.90
29551;DHT22;16488;52.396;10.696;2023-11-19T21:48:51;10.40;99.90
29551;DHT22;16488;52.396;10.696;2023-11-19T21:51:17;10.40;99.90
29551;DHT22;16488;52.396;10.696;2023-11-19T21:53:42;10.40;99.90
29551;DHT22;16488;52.396;10.696;2023-11-19T21:56:08;10.40;99.90
29551;DHT22;16488;52.396;10.696;2023-11-19T21:58:33;10.40;99.90
29551;DHT22;16488;52.396;10.696;2023-11-19T22:00:59;10.40;99.90
29551;DHT22;16488;52.396;10.696;2023-11-19T22:03:26;10.40;99.90
29551;DHT22;16488;52.396;10.696;2023-11-19T22:05:52;10.40;99.90
29551;DHT22;16488;52.396;10.696;2023-11-19T22:08:17;10.40;99.90
29551;DHT22;16488;52.396;10.696;2023-11-19T22:10:43;10.40;99.90
29551;DHT22;16488;52.396;10.696;2023-11-19T22:13:09;10.30;99.90
29551;DHT22;16488;52.396;10.696;2023-11-19T22:15:34;10.40;99.90
29551;DHT22;16488;52.396;10.696;2023-11-19T22:18:00;10.40;99.90
29551;DHT22;16488;52.396;10.696;2023-11-19T22:20:25;10.30;99.90
29551;DHT22;16488;52.396;10.696;2023-11-19T22:22:51;10.30;99.90
29551;DHT22;16488;52.396;10.696;2023-11-19T22:25:17;10.30;99.90
29551;DHT22;16488;52.396;10.696;2023-11-19T22:27:44;10.30;99.90
29551;DHT22;16488;52.396;10.696;2023-11-19T22:30:09;10.30;99.90
29551;DHT22;16488;52.396;10.696;2023-11-19T22:32:35;10.30;99.90
29551;DHT22;16488;52.396;10.696;2023-11-19T22:35:01;10.30;99.90
29551;DHT22;16488;52.396;10.696;2023-11-19T22:37:28;10.30;99.90
29551;DHT22;16488;52.396;10.696;2023-11-19T22:39:53;10.30;99.90
29551;DHT22;16488;52.396;10.696;2023-11-19T22:42:19;10.20;99.90
29551;DHT22;16488;52.396;10.696;2023-11-19T22:44:45;10.20;99.90
29551;DHT22;16488;52.396;10.696;2023-11-19T22:47:10;10.20;99.90
29551;DHT22;16488;52.396;10.696;2023-11-19T22:49:36;10.20;99.90
29551;DHT22;16488;52.396;10.696;2023-11-19T22:52:01;10.30;99.90
29551;DHT22;16488;52.396;10.696;2023-11-19T22:54:27;10.20;99.90
29551;DHT22;16488;52.396;10.696;2023-11-19T22:56:52;10.20;99.90
29551;DHT22;16488;52.396;10.696;2023-11-19T22:59:18;10.20;99.90
29551;DHT22;16488;52.396;10.696;2023-11-19T23:01:43;10.20;99.90
29551;DHT22;16488;52.396;10.696;2023-11-19T23:04:10;10.20;99.90
29551;DHT22;16488;52.396;10.696;2023-11-19T23:06:35;10.20;99.90
29551;DHT22;16488;52.396;10.696;2023-11-19T23:09:01;10.20;99.90
29551;DHT22;16488;52.396;10.696;2023-11-19T23:11:27;10.20;99.90
29551;DHT22;16488;52.396;10.696;2023-11-19T23:13:54;10.20;99.90
29551;DHT22;16488;52.396;10.696;2023-11-19T23:16:19;10.20;99.90
29551;DHT22;16488;52.396;10.696;2023-11-19T23:18:48;10.20;99.90
29551;DHT22;16488;52.396;10.696;2023-11-19T23:21:13;10.10;99.90
29551;DHT22;16488;52.396;10.696;2023-11-19T23:23:39;10.20;99.90
29551;DHT22;16488;52.396;10.696;2023-11-19T23:26:05;10.20;99.90
29551;DHT22;16488;52.396;10.696;2023-11-19T23:28:30;10.20;99.90
29551;DHT22;16488;52.396;10.696;2023-11-19T23:30:56;10.20;99.90
29551;DHT22;16488;52.396;10.696;2023-11-19T23:33:21;10.20;99.90
29551;DHT22;16488;52.396;10.696;2023-11-19T23:35:47;10.20;99.90
29551;DHT22;16488;52.396;10.696;2023-11-19T23:38:12;10.20;99.90
29551;DHT22;16488;52.396;10.696;2023-11-19T23:40:38;10.10;99.90
29551;DHT22;16488;52.396;10.696;2023-11-19T23:43:03;10.20;99.90
29551;DHT22;16488;52.396;10.696;2023-11-19T23:45:29;10.20;99.90
29551;DHT22;16488;52.396;10.696;2023-11-19T23:47:55;10.10;99.90
29551;DHT22;16488;52.396;10.696;2023-11-19T23:50:21;10.10;99.90
29551;DHT22;16488;52.396;10.696;2023-11-19T23:52:47;10.10;99.90
29551;DHT22;16488;52.396;10.696;2023-11-19T23:55:14;10.10;99.90
29551;DHT22;16488;52.396;10.696;2023-11-19T23:57:40;10.10;99.90
